sensor_id;sensor_type;location;lat;lon;timestamp;pressure;altitude;pressure_sealevel;temperature;humidity
23016;BME280;11674;52.428;13.584;2023-04-10T00:01:19;102370.03;;;8.02;72.37
23016;BME280;11674;52.428;13.584;2023-04-10T00:06:27;102364.50;;;8.02;72.36
23016;BME280;11674;52.428;13.584;2023-04-10T00:11:33;102369.19;;;8.02;72.29
23016;BME280;11674;52.428;13.584;2023-04-10T00:16:40;102357.78;;;7.98;72.28
23016;BME280;11674;52.428;13.584;2023-04-10T00:21:47;102362.31;;;7.93;72.27
23016;BME280;11674;52.428;13.584;2023-04-10T00:26:55;102355.81;;;7.87;72.47
23016;BME280;11674;52.428;13.584;2023-04-10T00:32:02;102345.06;;;7.79;72.58
23016;BME280;11674;52.428;13.584;2023-04-10T00:37:08;102342.16;;;7.74;72.44
23016;BME280;11674;52.428;13.584;2023-04-10T00:42:15;102335.41;;;7.70;72.56
23016;BME280;11674;52.428;13.584;2023-04-10T00:47:23;102332.75;;;7.64;72.58
23016;BME280;11674;52.428;13.584;2023-04-10T00:52:31;102336.19;;;7.59;72.59
23016;BME280;11674;52.428;13.584;2023-04-10T00:57:43;102328.03;;;7.53;72.64
23016;BME280;11674;52.428;13.584;2023-04-10T01:02:50;102321.50;;;7.47;72.64
23016;BME280;11674;52.428;13.584;2023-04-10T01:13:27;102320.00;;;7.33;72.67
23016;BME280;11674;52.428;13.584;2023-04-10T01:24:06;102315.63;;;7.26;72.65
23016;BME280;11674;52.428;13.584;2023-04-10T01:29:22;102316.66;;;7.25;72.74
23016;BME280;11674;52.428;13.584;2023-04-10T01:34:39;102310.88;;;7.15;72.64
23016;BME280;11674;52.428;13.584;2023-04-10T01:40:05;102317.66;;;6.94;72.64
23016;BME280;11674;52.428;13.584;2023-04-10T01:45:19;102323.94;;;6.83;72.99
23016;BME280;11674;52.428;13.584;2023-04-10T01:50:27;102322.25;;;6.82;72.95
23016;BME280;11674;52.428;13.584;2023-04-10T01:55:36;102328.84;;;6.81;72.95
23016;BME280;11674;52.428;13.584;2023-04-10T02:00:46;102326.31;;;6.80;72.92
23016;BME280;11674;52.428;13.584;2023-04-10T02:06:10;102313.38;;;6.80;72.75
23016;BME280;11674;52.428;13.584;2023-04-10T02:11:34;102310.44;;;6.75;72.73
23016;BME280;11674;52.428;13.584;2023-04-10T02:16:44;102316.41;;;6.72;72.79
23016;BME280;11674;52.428;13.584;2023-04-10T02:21:52;102317.72;;;6.70;72.88
23016;BME280;11674;52.428;13.584;2023-04-10T02:27:00;102319.00;;;6.67;72.89
23016;BME280;11674;52.428;13.584;2023-04-10T02:32:06;102313.31;;;6.62;72.88
23016;BME280;11674;52.428;13.584;2023-04-10T02:37:14;102314.00;;;6.58;73.01
23016;BME280;11674;52.428;13.584;2023-04-10T02:42:21;102308.94;;;6.55;72.91
23016;BME280;11674;52.428;13.584;2023-04-10T02:47:31;102323.41;;;6.50;73.02
23016;BME280;11674;52.428;13.584;2023-04-10T02:52:39;102322.38;;;6.45;72.88
23016;BME280;11674;52.428;13.584;2023-04-10T02:57:47;102326.69;;;6.41;73.01
23016;BME280;11674;52.428;13.584;2023-04-10T03:02:54;102336.44;;;6.37;73.08
23016;BME280;11674;52.428;13.584;2023-04-10T03:08:07;102327.41;;;6.30;72.91
23016;BME280;11674;52.428;13.584;2023-04-10T03:13:14;102336.81;;;6.16;73.09
23016;BME280;11674;52.428;13.584;2023-04-10T03:18:21;102334.56;;;6.06;73.05
23016;BME280;11674;52.428;13.584;2023-04-10T03:23:29;102324.88;;;5.97;73.10
23016;BME280;11674;52.428;13.584;2023-04-10T03:28:36;102330.19;;;5.92;72.95
23016;BME280;11674;52.428;13.584;2023-04-10T03:33:44;102327.94;;;5.83;72.98
23016;BME280;11674;52.428;13.584;2023-04-10T03:38:51;102333.00;;;5.79;73.33
23016;BME280;11674;52.428;13.584;2023-04-10T03:43:58;102330.06;;;5.81;73.27
23016;BME280;11674;52.428;13.584;2023-04-10T03:49:05;102330.91;;;5.75;73.20
23016;BME280;11674;52.428;13.584;2023-04-10T03:54:12;102323.13;;;5.65;73.28
23016;BME280;11674;52.428;13.584;2023-04-10T03:59:21;102328.03;;;5.57;73.27
23016;BME280;11674;52.428;13.584;2023-04-10T04:04:28;102330.00;;;5.50;73.30
23016;BME280;11674;52.428;13.584;2023-04-10T04:10:02;102331.75;;;5.31;73.25
23016;BME280;11674;52.428;13.584;2023-04-10T04:15:22;102323.59;;;5.12;73.30
23016;BME280;11674;52.428;13.584;2023-04-10T04:20:55;102332.50;;;4.94;73.31
23016;BME280;11674;52.428;13.584;2023-04-10T04:26:22;102339.69;;;4.89;73.48
23016;BME280;11674;52.428;13.584;2023-04-10T04:31:49;102334.84;;;4.91;73.51
23016;BME280;11674;52.428;13.584;2023-04-10T04:37:12;102336.53;;;4.92;73.40
23016;BME280;11674;52.428;13.584;2023-04-10T04:42:31;102330.84;;;4.87;73.32
23016;BME280;11674;52.428;13.584;2023-04-10T04:48:16;102329.78;;;4.81;73.44
23016;BME280;11674;52.428;13.584;2023-04-10T04:53:30;102342.28;;;4.77;73.53
23016;BME280;11674;52.428;13.584;2023-04-10T04:59:00;102333.59;;;4.80;73.80
23016;BME280;11674;52.428;13.584;2023-04-10T05:04:17;102334.41;;;4.94;73.74
23016;BME280;11674;52.428;13.584;2023-04-10T05:09:47;102338.63;;;5.03;73.76
23016;BME280;11674;52.428;13.584;2023-04-10T05:14:54;102333.72;;;5.11;73.92
23016;BME280;11674;52.428;13.584;2023-04-10T05:20:11;102334.31;;;5.26;73.96
23016;BME280;11674;52.428;13.584;2023-04-10T05:25:56;102333.19;;;5.40;73.96
23016;BME280;11674;52.428;13.584;2023-04-10T05:31:23;102340.75;;;5.51;73.83
23016;BME280;11674;52.428;13.584;2023-04-10T05:36:50;102338.19;;;5.63;74.02
23016;BME280;11674;52.428;13.584;2023-04-10T05:42:11;102345.94;;;5.85;74.20
23016;BME280;11674;52.428;13.584;2023-04-10T05:47:23;102350.03;;;6.07;74.33
23016;BME280;11674;52.428;13.584;2023-04-10T05:52:40;102348.97;;;6.33;74.36
23016;BME280;11674;52.428;13.584;2023-04-10T05:58:07;102342.19;;;6.60;74.33
23016;BME280;11674;52.428;13.584;2023-04-10T06:03:43;102343.19;;;6.90;74.32
23016;BME280;11674;52.428;13.584;2023-04-10T06:08:51;102336.38;;;7.10;74.27
23016;BME280;11674;52.428;13.584;2023-04-10T06:13:59;102326.97;;;7.36;74.57
23016;BME280;11674;52.428;13.584;2023-04-10T06:19:13;102329.78;;;7.65;74.61
23016;BME280;11674;52.428;13.584;2023-04-10T06:24:20;102335.69;;;7.98;74.72
23016;BME280;11674;52.428;13.584;2023-04-10T06:29:28;102329.06;;;8.29;74.90
23016;BME280;11674;52.428;13.584;2023-04-10T06:34:36;102321.69;;;8.64;75.05
23016;BME280;11674;52.428;13.584;2023-04-10T06:39:44;102328.03;;;8.99;74.97
23016;BME280;11674;52.428;13.584;2023-04-10T06:44:51;102325.00;;;9.35;75.08
23016;BME280;11674;52.428;13.584;2023-04-10T06:49:58;102320.47;;;9.57;75.10
23016;BME280;11674;52.428;13.584;2023-04-10T06:55:05;102318.56;;;9.85;75.22
23016;BME280;11674;52.428;13.584;2023-04-10T07:00:12;102314.06;;;10.24;75.45
23016;BME280;11674;52.428;13.584;2023-04-10T07:05:19;102301.56;;;10.54;75.21
23016;BME280;11674;52.428;13.584;2023-04-10T07:10:26;102302.97;;;10.73;75.28
23016;BME280;11674;52.428;13.584;2023-04-10T07:15:33;102303.13;;;10.83;75.17
23016;BME280;11674;52.428;13.584;2023-04-10T07:20:40;102296.47;;;10.84;75.51
23016;BME280;11674;52.428;13.584;2023-04-10T07:25:47;102302.25;;;10.99;75.45
23016;BME280;11674;52.428;13.584;2023-04-10T07:30:54;102304.16;;;11.15;75.42
23016;BME280;11674;52.428;13.584;2023-04-10T07:36:01;102297.31;;;11.23;75.43
23016;BME280;11674;52.428;13.584;2023-04-10T07:41:08;102308.00;;;11.31;75.30
23016;BME280;11674;52.428;13.584;2023-04-10T07:46:15;102297.41;;;11.49;75.39
23016;BME280;11674;52.428;13.584;2023-04-10T07:51:23;102285.06;;;11.62;75.33
23016;BME280;11674;52.428;13.584;2023-04-10T07:56:30;102289.19;;;11.81;75.44
23016;BME280;11674;52.428;13.584;2023-04-10T08:01:37;102287.75;;;12.00;75.44
23016;BME280;11674;52.428;13.584;2023-04-10T08:06:44;102287.31;;;12.13;75.34
23016;BME280;11674;52.428;13.584;2023-04-10T08:11:51;102272.78;;;12.37;75.31
23016;BME280;11674;52.428;13.584;2023-04-10T08:16:58;102272.13;;;12.62;75.25
23016;BME280;11674;52.428;13.584;2023-04-10T08:22:05;102276.97;;;12.76;74.91
23016;BME280;11674;52.428;13.584;2023-04-10T08:27:12;102262.78;;;12.78;75.08
23016;BME280;11674;52.428;13.584;2023-04-10T08:32:19;102264.91;;;12.97;75.10
23016;BME280;11674;52.428;13.584;2023-04-10T08:37:26;102262.75;;;13.09;74.87
23016;BME280;11674;52.428;13.584;2023-04-10T08:42:33;102270.88;;;13.21;74.66
23016;BME280;11674;52.428;13.584;2023-04-10T08:47:43;102268.47;;;13.39;74.44
23016;BME280;11674;52.428;13.584;2023-04-10T08:52:54;102267.13;;;13.52;74.63
23016;BME280;11674;52.428;13.584;2023-04-10T08:58:02;102246.28;;;13.69;74.10
23016;BME280;11674;52.428;13.584;2023-04-10T09:03:10;102251.59;;;13.81;74.17
23016;BME280;11674;52.428;13.584;2023-04-10T09:08:17;102241.59;;;14.05;73.74
23016;BME280;11674;52.428;13.584;2023-04-10T09:13:43;102231.56;;;14.14;73.63
23016;BME280;11674;52.428;13.584;2023-04-10T09:18:50;102221.28;;;14.34;73.75
23016;BME280;11674;52.428;13.584;2023-04-10T09:24:00;102209.81;;;14.56;73.25
23016;BME280;11674;52.428;13.584;2023-04-10T09:29:07;102204.44;;;14.79;72.98
23016;BME280;11674;52.428;13.584;2023-04-10T09:34:18;102187.06;;;14.97;72.94
23016;BME280;11674;52.428;13.584;2023-04-10T09:39:33;102189.81;;;15.12;72.40
23016;BME280;11674;52.428;13.584;2023-04-10T09:44:41;102176.09;;;15.16;72.42
23016;BME280;11674;52.428;13.584;2023-04-10T09:55:04;102160.56;;;15.48;71.71
23016;BME280;11674;52.428;13.584;2023-04-10T10:00:11;102149.53;;;15.67;71.57
23016;BME280;11674;52.428;13.584;2023-04-10T10:05:18;102157.31;;;15.75;70.60
23016;BME280;11674;52.428;13.584;2023-04-10T10:10:25;102146.19;;;15.65;71.16
23016;BME280;11674;52.428;13.584;2023-04-10T10:15:39;102139.91;;;15.83;70.51
23016;BME280;11674;52.428;13.584;2023-04-10T10:20:49;102133.38;;;15.97;70.02
23016;BME280;11674;52.428;13.584;2023-04-10T10:25:57;102125.41;;;16.09;70.01
23016;BME280;11674;52.428;13.584;2023-04-10T10:31:06;102127.75;;;16.26;69.38
23016;BME280;11674;52.428;13.584;2023-04-10T10:36:14;102119.31;;;16.31;69.33
23016;BME280;11674;52.428;13.584;2023-04-10T10:47:18;102104.22;;;16.55;68.62
23016;BME280;11674;52.428;13.584;2023-04-10T10:52:49;102094.81;;;16.70;68.07
23016;BME280;11674;52.428;13.584;2023-04-10T10:57:58;102073.63;;;16.82;68.22
23016;BME280;11674;52.428;13.584;2023-04-10T11:08:15;102074.06;;;17.13;67.39
23016;BME280;11674;52.428;13.584;2023-04-10T11:13:22;102063.69;;;17.32;67.44
23016;BME280;11674;52.428;13.584;2023-04-10T11:19:05;102056.63;;;17.53;66.36
23016;BME280;11674;52.428;13.584;2023-04-10T11:24:12;102044.09;;;17.64;66.51
23016;BME280;11674;52.428;13.584;2023-04-10T11:34:26;102036.81;;;17.95;65.51
23016;BME280;11674;52.428;13.584;2023-04-10T11:39:33;102025.00;;;18.11;65.42
23016;BME280;11674;52.428;13.584;2023-04-10T11:44:40;102018.69;;;18.33;64.87
23016;BME280;11674;52.428;13.584;2023-04-10T11:49:52;102005.81;;;18.32;64.26
23016;BME280;11674;52.428;13.584;2023-04-10T11:54:59;102001.44;;;18.53;64.45
23016;BME280;11674;52.428;13.584;2023-04-10T12:00:06;101988.31;;;19.11;63.53
23016;BME280;11674;52.428;13.584;2023-04-10T12:05:14;101985.91;;;19.40;63.17
23016;BME280;11674;52.428;13.584;2023-04-10T12:10:21;101971.81;;;19.18;62.69
23016;BME280;11674;52.428;13.584;2023-04-10T12:15:29;101964.81;;;19.29;62.56
23016;BME280;11674;52.428;13.584;2023-04-10T12:20:36;101960.75;;;18.86;62.94
23016;BME280;11674;52.428;13.584;2023-04-10T12:25:43;101948.34;;;19.22;62.43
23016;BME280;11674;52.428;13.584;2023-04-10T12:30:51;101941.16;;;19.82;61.56
23016;BME280;11674;52.428;13.584;2023-04-10T12:35:58;101928.06;;;20.08;61.02
23016;BME280;11674;52.428;13.584;2023-04-10T12:41:05;101938.91;;;20.32;61.21
23016;BME280;11674;52.428;13.584;2023-04-10T12:46:25;101918.91;;;20.59;60.09
23016;BME280;11674;52.428;13.584;2023-04-10T12:51:50;101910.66;;;20.15;59.91
23016;BME280;11674;52.428;13.584;2023-04-10T12:56:59;101901.00;;;19.77;60.64
23016;BME280;11674;52.428;13.584;2023-04-10T13:02:06;101894.31;;;19.64;60.37
23016;BME280;11674;52.428;13.584;2023-04-10T13:07:13;101879.78;;;19.71;60.39
23016;BME280;11674;52.428;13.584;2023-04-10T13:12:20;101870.41;;;19.84;60.17
23016;BME280;11674;52.428;13.584;2023-04-10T13:17:27;101859.53;;;20.72;59.10
23016;BME280;11674;52.428;13.584;2023-04-10T13:22:34;101834.50;;;21.51;58.50
23016;BME280;11674;52.428;13.584;2023-04-10T13:27:41;101828.13;;;21.79;58.30
23016;BME280;11674;52.428;13.584;2023-04-10T13:32:48;101825.09;;;21.30;58.43
23016;BME280;11674;52.428;13.584;2023-04-10T13:37:55;101807.59;;;21.53;57.83
23016;BME280;11674;52.428;13.584;2023-04-10T13:43:02;101786.91;;;21.70;56.92
23016;BME280;11674;52.428;13.584;2023-04-10T13:48:09;101785.88;;;21.83;56.56
23016;BME280;11674;52.428;13.584;2023-04-10T13:53:16;101779.97;;;21.59;56.83
23016;BME280;11674;52.428;13.584;2023-04-10T13:58:23;101768.53;;;21.01;57.27
23016;BME280;11674;52.428;13.584;2023-04-10T14:03:30;101771.91;;;20.94;57.07
23016;BME280;11674;52.428;13.584;2023-04-10T14:08:37;101768.25;;;20.60;57.04
23016;BME280;11674;52.428;13.584;2023-04-10T14:13:44;101745.88;;;20.46;57.30
23016;BME280;11674;52.428;13.584;2023-04-10T14:18:51;101741.38;;;20.62;57.14
23016;BME280;11674;52.428;13.584;2023-04-10T14:23:58;101734.06;;;20.78;56.73
23016;BME280;11674;52.428;13.584;2023-04-10T14:29:05;101725.34;;;21.17;56.02
23016;BME280;11674;52.428;13.584;2023-04-10T14:34:12;101715.38;;;21.49;55.65
23016;BME280;11674;52.428;13.584;2023-04-10T14:39:19;101726.66;;;21.20;56.17
23016;BME280;11674;52.428;13.584;2023-04-10T14:44:26;101709.16;;;21.35;55.98
23016;BME280;11674;52.428;13.584;2023-04-10T14:49:33;101701.38;;;21.61;55.39
23016;BME280;11674;52.428;13.584;2023-04-10T14:54:40;101690.19;;;21.73;55.18
23016;BME280;11674;52.428;13.584;2023-04-10T14:59:54;101681.72;;;21.44;54.77
23016;BME280;11674;52.428;13.584;2023-04-10T15:05:01;101676.13;;;21.27;55.50
23016;BME280;11674;52.428;13.584;2023-04-10T15:10:08;101670.34;;;21.23;54.74
23016;BME280;11674;52.428;13.584;2023-04-10T15:15:16;101660.75;;;21.16;54.79
23016;BME280;11674;52.428;13.584;2023-04-10T15:20:23;101652.16;;;21.33;54.50
23016;BME280;11674;52.428;13.584;2023-04-10T15:25:33;101650.72;;;21.27;53.43
23016;BME280;11674;52.428;13.584;2023-04-10T15:30:43;101633.44;;;21.28;53.37
23016;BME280;11674;52.428;13.584;2023-04-10T15:35:50;101626.06;;;21.15;53.41
23016;BME280;11674;52.428;13.584;2023-04-10T15:40:57;101614.75;;;21.15;53.55
23016;BME280;11674;52.428;13.584;2023-04-10T15:46:04;101600.13;;;21.13;53.73
23016;BME280;11674;52.428;13.584;2023-04-10T15:51:11;101603.09;;;21.17;53.13
23016;BME280;11674;52.428;13.584;2023-04-10T15:56:18;101591.00;;;21.16;53.07
23016;BME280;11674;52.428;13.584;2023-04-10T16:01:25;101584.31;;;21.21;53.27
23016;BME280;11674;52.428;13.584;2023-04-10T16:06:32;101564.91;;;21.19;52.73
23016;BME280;11674;52.428;13.584;2023-04-10T16:11:39;101558.38;;;21.27;52.85
23016;BME280;11674;52.428;13.584;2023-04-10T16:16:46;101556.22;;;21.24;52.51
23016;BME280;11674;52.428;13.584;2023-04-10T16:21:53;101547.28;;;21.02;52.76
23016;BME280;11674;52.428;13.584;2023-04-10T16:27:00;101531.78;;;20.70;52.36
23016;BME280;11674;52.428;13.584;2023-04-10T16:32:07;101517.97;;;20.48;52.69
23016;BME280;11674;52.428;13.584;2023-04-10T16:37:14;101513.91;;;20.29;52.38
23016;BME280;11674;52.428;13.584;2023-04-10T16:42:21;101511.78;;;20.17;52.45
23016;BME280;11674;52.428;13.584;2023-04-10T16:47:28;101501.00;;;20.02;52.46
23016;BME280;11674;52.428;13.584;2023-04-10T16:52:35;101497.09;;;19.78;52.04
23016;BME280;11674;52.428;13.584;2023-04-10T16:57:42;101493.31;;;19.57;52.06
23016;BME280;11674;52.428;13.584;2023-04-10T17:02:49;101482.59;;;19.33;51.98
23016;BME280;11674;52.428;13.584;2023-04-10T17:07:56;101477.41;;;19.18;52.04
23016;BME280;11674;52.428;13.584;2023-04-10T17:13:03;101476.88;;;18.99;52.20
23016;BME280;11674;52.428;13.584;2023-04-10T17:18:10;101466.09;;;18.84;52.14
23016;BME280;11674;52.428;13.584;2023-04-10T17:23:17;101455.31;;;18.61;52.41
23016;BME280;11674;52.428;13.584;2023-04-10T17:28:24;101452.47;;;18.44;52.15
23016;BME280;11674;52.428;13.584;2023-04-10T17:33:31;101438.16;;;18.23;52.43
23016;BME280;11674;52.428;13.584;2023-04-10T17:38:39;101442.38;;;18.04;52.29
23016;BME280;11674;52.428;13.584;2023-04-10T17:43:47;101432.72;;;17.88;52.29
23016;BME280;11674;52.428;13.584;2023-04-10T17:48:54;101424.84;;;17.68;52.78
23016;BME280;11674;52.428;13.584;2023-04-10T17:54:01;101427.53;;;17.51;52.83
23016;BME280;11674;52.428;13.584;2023-04-10T17:59:08;101417.84;;;17.35;53.04
23016;BME280;11674;52.428;13.584;2023-04-10T18:04:15;101413.75;;;17.19;52.95
23016;BME280;11674;52.428;13.584;2023-04-10T18:09:22;101400.28;;;17.07;52.66
23016;BME280;11674;52.428;13.584;2023-04-10T18:14:29;101398.19;;;16.91;53.12
23016;BME280;11674;52.428;13.584;2023-04-10T18:19:36;101391.19;;;16.80;52.94
23016;BME280;11674;52.428;13.584;2023-04-10T18:24:49;101394.00;;;16.66;52.89
23016;BME280;11674;52.428;13.584;2023-04-10T18:29:56;101400.97;;;16.55;53.43
23016;BME280;11674;52.428;13.584;2023-04-10T18:35:04;101388.03;;;16.46;53.16
23016;BME280;11674;52.428;13.584;2023-04-10T18:40:10;101381.16;;;16.38;53.43
23016;BME280;11674;52.428;13.584;2023-04-10T18:45:17;101390.31;;;16.30;53.50
23016;BME280;11674;52.428;13.584;2023-04-10T18:50:24;101382.13;;;16.20;53.73
23016;BME280;11674;52.428;13.584;2023-04-10T18:55:31;101387.84;;;16.15;53.57
23016;BME280;11674;52.428;13.584;2023-04-10T19:00:38;101376.53;;;16.07;53.59
23016;BME280;11674;52.428;13.584;2023-04-10T19:05:45;101365.47;;;16.02;53.47
23016;BME280;11674;52.428;13.584;2023-04-10T19:10:52;101368.97;;;15.94;53.57
23016;BME280;11674;52.428;13.584;2023-04-10T19:16:02;101352.28;;;15.89;53.57
23016;BME280;11674;52.428;13.584;2023-04-10T19:21:09;101346.81;;;15.84;53.83
23016;BME280;11674;52.428;13.584;2023-04-10T19:26:16;101332.69;;;15.75;53.76
23016;BME280;11674;52.428;13.584;2023-04-10T19:31:23;101331.16;;;15.69;53.75
23016;BME280;11674;52.428;13.584;2023-04-10T19:36:30;101322.34;;;15.62;53.91
23016;BME280;11674;52.428;13.584;2023-04-10T19:41:37;101318.81;;;15.57;54.02
23016;BME280;11674;52.428;13.584;2023-04-10T19:46:46;101306.91;;;15.51;54.11
23016;BME280;11674;52.428;13.584;2023-04-10T19:51:53;101299.47;;;15.47;53.94
23016;BME280;11674;52.428;13.584;2023-04-10T19:57:00;101299.00;;;15.40;54.15
23016;BME280;11674;52.428;13.584;2023-04-10T20:02:07;101287.13;;;15.34;54.20
23016;BME280;11674;52.428;13.584;2023-04-10T20:07:14;101291.63;;;15.30;54.27
23016;BME280;11674;52.428;13.584;2023-04-10T20:12:21;101278.59;;;15.26;54.33
23016;BME280;11674;52.428;13.584;2023-04-10T20:17:28;101260.13;;;15.25;54.18
23016;BME280;11674;52.428;13.584;2023-04-10T20:22:35;101245.97;;;15.21;54.19
23016;BME280;11674;52.428;13.584;2023-04-10T20:27:42;101241.00;;;15.18;53.79
23016;BME280;11674;52.428;13.584;2023-04-10T20:32:49;101226.19;;;15.18;54.04
23016;BME280;11674;52.428;13.584;2023-04-10T20:37:56;101222.88;;;15.16;53.76
23016;BME280;11674;52.428;13.584;2023-04-10T20:43:03;101205.56;;;15.14;53.53
23016;BME280;11674;52.428;13.584;2023-04-10T20:48:10;101197.81;;;15.11;53.89
23016;BME280;11674;52.428;13.584;2023-04-10T20:53:17;101196.47;;;15.08;53.63
23016;BME280;11674;52.428;13.584;2023-04-10T20:58:24;101194.00;;;15.07;53.59
23016;BME280;11674;52.428;13.584;2023-04-10T21:03:31;101189.84;;;15.04;53.75
23016;BME280;11674;52.428;13.584;2023-04-10T21:08:38;101200.50;;;15.02;53.61
23016;BME280;11674;52.428;13.584;2023-04-10T21:13:45;101189.63;;;15.01;53.44
23016;BME280;11674;52.428;13.584;2023-04-10T21:18:52;101193.56;;;15.00;53.52
23016;BME280;11674;52.428;13.584;2023-04-10T21:23:59;101181.88;;;14.98;53.20
23016;BME280;11674;52.428;13.584;2023-04-10T21:29:06;101182.19;;;14.96;53.60
23016;BME280;11674;52.428;13.584;2023-04-10T21:34:13;101169.66;;;14.94;53.67
23016;BME280;11674;52.428;13.584;2023-04-10T21:39:20;101171.13;;;14.91;53.25
23016;BME280;11674;52.428;13.584;2023-04-10T21:44:27;101162.53;;;14.88;53.48
23016;BME280;11674;52.428;13.584;2023-04-10T21:49:34;101167.06;;;14.84;53.56
23016;BME280;11674;52.428;13.584;2023-04-10T21:54:41;101151.44;;;14.83;53.67
23016;BME280;11674;52.428;13.584;2023-04-10T21:59:48;101148.75;;;14.78;53.60
23016;BME280;11674;52.428;13.584;2023-04-10T22:04:55;101141.81;;;14.75;53.63
23016;BME280;11674;52.428;13.584;2023-04-10T22:10:02;101130.75;;;14.70;53.61
23016;BME280;11674;52.428;13.584;2023-04-10T22:15:09;101121.94;;;14.63;53.44
23016;BME280;11674;52.428;13.584;2023-04-10T22:20:16;101111.41;;;14.60;53.31
23016;BME280;11674;52.428;13.584;2023-04-10T22:25:24;101102.81;;;14.57;53.41
23016;BME280;11674;52.428;13.584;2023-04-10T22:30:30;101088.09;;;14.51;53.35
23016;BME280;11674;52.428;13.584;2023-04-10T22:35:38;101073.94;;;14.48;53.48
23016;BME280;11674;52.428;13.584;2023-04-10T22:40:45;101064.81;;;14.42;53.71
23016;BME280;11674;52.428;13.584;2023-04-10T22:45:52;101061.31;;;14.37;53.48
23016;BME280;11674;52.428;13.584;2023-04-10T22:50:59;101045.50;;;14.32;53.76
23016;BME280;11674;52.428;13.584;2023-04-10T22:56:07;101040.22;;;14.31;53.67
23016;BME280;11674;52.428;13.584;2023-04-10T23:01:14;101040.53;;;14.29;53.62
23016;BME280;11674;52.428;13.584;2023-04-10T23:06:21;101027.50;;;14.25;53.78
23016;BME280;11674;52.428;13.584;2023-04-10T23:11:28;101033.91;;;14.25;53.74
23016;BME280;11674;52.428;13.584;2023-04-10T23:16:35;101025.03;;;14.23;53.57
23016;BME280;11674;52.428;13.584;2023-04-10T23:21:42;101011.13;;;14.18;53.61
23016;BME280;11674;52.428;13.584;2023-04-10T23:26:49;101000.91;;;14.14;53.46
23016;BME280;11674;52.428;13.584;2023-04-10T23:31:56;101001.81;;;14.09;53.79
23016;BME280;11674;52.428;13.584;2023-04-10T23:37:03;100993.22;;;14.06;53.96
23016;BME280;11674;52.428;13.584;2023-04-10T23:42:10;100969.88;;;14.02;53.68
23016;BME280;11674;52.428;13.584;2023-04-10T23:47:20;100954.91;;;13.98;53.67
23016;BME280;11674;52.428;13.584;2023-04-10T23:52:30;100943.22;;;13.96;54.00
23016;BME280;11674;52.428;13.584;2023-04-10T23:57:37;100939.91;;;13.94;54.03
